Time;durP1;ratioP1;P1;durP2;ratioP2;P2;SDS_P1;SDS_P2;PMS_P1;PMS_P2;Temp;Humidity;BMP_temperature;BMP_pressure;BME280_temperature;BME280_humidity;BME280_pressure;Samples;Min_cycle;Max_cycle;Signal;HPM_P1;HPM_P2
2022/01/08 00:02:09;;;;;;;6.88;3.60;;;;;;;2.60;77.20;98604.56;5096569;28;20044;-93
2022/01/08 00:04:35;;;;;;;7.20;4.05;;;;;;;2.53;76.76;98584.44;5096293;28;20048;-92
2022/01/08 00:07:01;;;;;;;7.10;3.88;;;;;;;2.61;76.31;98598.47;5099956;28;20055;-92
2022/01/08 00:09:27;;;;;;;6.03;3.92;;;;;;;2.53;76.65;98597.56;5116148;28;20056;-93
2022/01/08 00:11:54;;;;;;;6.20;3.75;;;;;;;2.40;76.66;98583.53;5096154;28;20040;-94
2022/01/08 00:14:24;;;;;;;6.65;3.80;;;;;;;2.40;77.43;98592.28;5096039;28;20130;-95
2022/01/08 00:26:54;;;;;;;7.45;4.13;;;;;;;2.28;77.39;98601.84;5099017;28;20036;-93
2022/01/08 00:29:23;;;;;;;5.97;3.60;;;;;;;2.27;78.48;98601.00;5116438;28;20044;-93
2022/01/08 00:31:50;;;;;;;6.75;3.63;;;;;;;2.26;77.50;98600.13;5116211;28;20481;-94
2022/01/08 00:34:15;;;;;;;7.28;3.80;;;;;;;2.20;78.07;98583.47;5116136;28;20089;-93
2022/01/08 00:36:42;;;;;;;6.45;3.75;;;;;;;2.19;78.44;98581.72;5116557;28;20063;-93
2022/01/08 00:39:08;;;;;;;5.07;3.35;;;;;;;2.36;77.97;98608.00;5115787;28;20051;-94
2022/01/08 00:41:34;;;;;;;5.70;3.47;;;;;;;2.29;78.24;98601.88;5115917;28;20090;-94
2022/01/08 00:44:02;;;;;;;7.90;3.33;;;;;;;2.18;78.36;98583.47;5115322;28;20050;-94
2022/01/08 00:49:50;;;;;;;7.10;3.40;;;;;;;2.33;77.81;98597.53;5115578;28;20063;-95
2022/01/08 00:52:20;;;;;;;7.80;3.58;;;;;;;2.28;77.64;98583.50;5115634;28;20121;-93
2022/01/08 00:54:45;;;;;;;;;;;;;;;2.47;77.63;98612.44;5117227;28;20501;-95
2022/01/08 00:57:11;;;;;;;8.23;3.80;;;;;;;2.51;77.59;98610.69;5104564;28;19924;-94
2022/01/08 00:59:37;;;;;;;6.60;3.72;;;;;;;2.33;77.27;98573.91;5095572;28;20223;-93
2022/01/08 01:02:03;;;;;;;6.28;3.33;;;;;;;2.32;77.03;98575.66;5100571;28;20199;-94
2022/01/08 01:04:29;;;;;;;8.30;3.70;;;;;;;2.38;77.11;98585.28;5098204;28;20036;-90
2022/01/08 01:06:57;;;;;;;6.75;4.25;;;;;;;2.42;77.54;98605.41;5074463;28;20064;-94
2022/01/08 01:09:23;;;;;;;10.48;3.97;;;;;;;2.31;77.00;98580.91;5086256;28;20428;-94
2022/01/08 01:11:49;;;;;;;6.88;3.95;;;;;;;2.34;77.63;98583.50;5094824;28;20048;-94
2022/01/08 01:14:14;;;;;;;7.32;3.70;;;;;;;2.31;77.47;98592.25;5095658;28;20048;-93
2022/01/08 01:20:03;;;;;;;5.72;3.40;;;;;;;2.37;78.17;98612.41;5099142;28;20061;-94
2022/01/08 01:22:41;;;;;;;6.68;3.80;;;;;;;2.26;77.28;98583.50;5098971;28;20040;-92
2022/01/08 01:25:10;;;;;;;6.05;3.40;;;;;;;2.37;77.02;98597.53;5104911;28;20044;-93
2022/01/08 01:49:50;;;;;;;6.38;3.72;;;;;;;2.28;76.18;98580.88;5133400;27;20115;-92
2022/01/08 01:52:17;;;;;;;7.03;4.18;;;;;;;2.35;76.08;98601.91;5113831;28;20044;-92
2022/01/08 01:54:44;;;;;;;5.72;3.20;;;;;;;2.23;75.95;98586.09;5114009;28;20367;-92
2022/01/08 01:57:13;;;;;;;5.50;3.42;;;;;;;2.18;76.77;98580.84;5113350;28;20040;-93
2022/01/08 01:59:41;;;;;;;5.32;3.25;;;;;;;2.09;76.40;98569.47;5113828;28;20039;-94
2022/01/08 02:05:30;;;;;;;6.80;3.55;;;;;;;2.09;76.81;98566.84;5093118;28;20379;-94
2022/01/08 02:07:57;;;;;;;5.63;3.97;;;;;;;2.09;76.48;98567.72;5092566;28;20075;-94
2022/01/08 02:10:23;;;;;;;6.63;3.58;;;;;;;2.15;76.45;98569.50;5092427;28;20071;-93
2022/01/08 02:12:49;;;;;;;6.00;3.38;;;;;;;2.10;76.53;98564.19;5092296;28;20052;-94
2022/01/08 02:19:32;;;;;;;9.10;3.67;;;;;;;2.11;76.54;98568.59;5110021;28;20138;-93
2022/01/08 02:22:01;;;;;;;6.60;3.97;;;;;;;2.02;75.86;98547.59;5113754;28;20028;-94
2022/01/08 02:24:29;;;;;;;5.90;3.50;;;;;;;2.03;76.02;98555.44;5095128;28;20040;-94
2022/01/08 02:26:55;;;;;;;4.38;2.95;;;;;;;1.99;76.04;98548.44;5095445;28;20075;-94
2022/01/08 02:29:23;;;;;;;4.43;2.85;;;;;;;2.02;75.01;98548.44;5095422;28;20040;-94
2022/01/08 02:35:16;;;;;;;4.75;2.67;;;;;;;2.13;74.13;98551.13;5097704;28;20031;-92
2022/01/08 02:37:44;;;;;;;4.97;3.00;;;;;;;2.09;75.08;98554.59;5114676;28;20051;-93
2022/01/08 02:40:13;;;;;;;4.50;2.90;;;;;;;2.11;73.97;98550.22;5120518;28;20044;-93
2022/01/08 02:42:50;;;;;;;5.07;2.70;;;;;;;1.96;73.62;98523.97;5112541;28;20102;-94
2022/01/08 02:49:34;;;;;;;5.35;3.08;;;;;;;2.06;72.92;98544.09;5110974;28;20161;-93
2022/01/08 02:52:01;;;;;;;7.70;3.05;;;;;;;1.89;72.77;98509.94;5092936;28;20040;-93
2022/01/08 02:54:31;;;;;;;6.40;2.92;;;;;;;2.01;72.85;98538.81;5091463;28;20044;-94
2022/01/08 02:56:57;;;;;;;5.65;3.28;;;;;;;1.93;71.98;98521.31;5092946;28;20044;-94
2022/01/08 02:59:24;;;;;;;6.00;3.17;;;;;;;1.98;71.89;98517.84;5089660;28;20033;-93
2022/01/08 03:05:16;;;;;;;6.03;2.78;;;;;;;2.01;71.40;98514.34;5079490;28;20131;-94
2022/01/08 03:07:49;;;;;;;5.78;2.72;;;;;;;1.92;71.21;98502.09;5079358;28;20055;-93
2022/01/08 03:10:18;;;;;;;9.43;2.83;;;;;;;1.96;71.06;98508.22;5078476;28;20051;-92
2022/01/08 03:12:46;;;;;;;4.70;2.75;;;;;;;1.85;71.24;98488.09;5077988;28;20448;-94
2022/01/08 03:21:57;;;;;;;5.47;2.80;;;;;;;2.06;70.18;98499.53;5086991;28;20028;-93
2022/01/08 03:24:28;;;;;;;4.88;2.80;;;;;;;2.00;70.45;98489.00;5078156;28;20049;-94
2022/01/08 03:26:57;;;;;;;6.00;2.78;;;;;;;1.99;69.93;98489.88;5078134;28;20506;-93
2022/01/08 03:29:25;;;;;;;5.78;2.63;;;;;;;2.04;69.96;98494.25;5078503;28;20037;-94
2022/01/08 03:35:13;;;;;;;4.95;2.70;;;;;;;2.03;69.75;98487.25;5078676;28;20032;-94
2022/01/08 03:37:39;;;;;;;6.32;3.30;;;;;;;1.82;69.59;98460.97;5078192;28;20056;-93
2022/01/08 03:40:07;;;;;;;4.30;2.80;;;;;;;1.95;69.48;98499.50;5077692;28;20501;-93
2022/01/08 03:42:36;;;;;;;6.68;3.17;;;;;;;1.78;69.86;98491.56;5078316;28;20040;-93
2022/01/08 03:51:46;;;;;;;5.10;2.60;;;;;;;1.85;67.17;98482.84;5098522;28;20048;-95
2022/01/08 03:54:13;;;;;;;3.45;2.38;;;;;;;1.90;67.79;98484.59;5098278;28;20083;-96
2022/01/08 03:56:42;;;;;;;4.75;2.80;;;;;;;1.77;67.16;98476.69;5099298;28;20036;-94
2022/01/08 03:59:13;;;;;;;3.63;2.45;;;;;;;1.71;67.30;98474.03;5099676;28;20040;-96
2022/01/08 04:05:01;;;;;;;2.72;1.95;;;;;;;1.93;66.13;98500.31;5099350;28;20486;-95
2022/01/08 04:07:26;;;;;;;4.47;2.20;;;;;;;1.88;67.68;98499.44;5098418;28;20044;-94
2022/01/08 04:09:53;;;;;;;3.63;2.45;;;;;;;1.75;66.44;98481.03;5099688;28;20048;-95
2022/01/08 04:12:30;;;;;;;4.80;2.30;;;;;;;1.85;65.95;98472.34;5099710;28;20048;-95
2022/01/08 04:15:06;;;;;;;4.55;2.67;;;;;;;1.82;65.68;98464.50;5099489;28;20051;-94
2022/01/08 04:17:32;;;;;;;4.88;2.65;;;;;;;1.89;66.37;98481.09;5099045;28;20074;-93
2022/01/08 04:19:58;;;;;;;4.53;2.80;;;;;;;1.79;66.57;98471.47;5099696;28;20090;-94
2022/01/08 04:22:25;;;;;;;5.10;2.30;;;;;;;1.84;66.89;98490.69;5100478;28;20043;-94
2022/01/08 04:24:52;;;;;;;4.50;2.67;;;;;;;1.84;67.33;98501.19;5098591;28;20406;-93
2022/01/08 04:27:21;;;;;;;5.00;2.80;;;;;;;1.74;67.02;98488.94;5097675;28;20055;-93
2022/01/08 04:29:49;;;;;;;4.47;2.70;;;;;;;1.71;67.89;98492.38;5096789;28;20044;-94
2022/01/08 04:32:47;;;;;;;3.00;2.13;;;;;;;1.75;66.89;98498.53;5096422;28;20054;-95
2022/01/08 04:35:14;;;;;;;4.22;2.30;;;;;;;1.69;67.08;98491.50;5096955;28;20494;-95
2022/01/08 04:37:40;;;;;;;6.57;2.40;;;;;;;1.66;66.55;98480.16;5096710;28;20079;-93
2022/01/08 04:40:06;;;;;;;4.43;2.40;;;;;;;1.67;65.35;98461.81;5096718;28;20056;-93
2022/01/08 04:42:35;;;;;;;2.83;2.20;;;;;;;1.73;65.72;98466.19;5096368;28;20052;-93
2022/01/08 04:51:46;;;;;;;4.00;2.40;;;;;;;1.77;65.21;98484.56;5096144;28;20070;-94
2022/01/08 04:54:13;;;;;;;4.75;2.40;;;;;;;1.69;64.41;98470.53;5096472;28;20044;-94
2022/01/08 04:56:39;;;;;;;4.30;2.50;;;;;;;1.66;64.36;98467.91;5096860;28;20040;-92
2022/01/08 04:59:06;;;;;;;4.20;2.47;;;;;;;1.72;64.73;98480.19;5096568;28;20040;-94
2022/01/08 05:04:54;;;;;;;3.83;2.10;;;;;;;1.70;64.62;98481.91;5075719;28;20029;-93
2022/01/08 05:07:22;;;;;;;4.00;2.30;;;;;;;1.56;64.70;98456.53;5084503;28;20039;-93
2022/01/08 05:09:48;;;;;;;9.10;2.47;;;;;;;1.62;65.02;98468.78;5096073;28;20075;-93
2022/01/08 05:12:15;;;;;;;6.55;2.60;;;;;;;1.56;64.94;98450.41;5096156;28;20040;-95
2022/01/08 05:14:44;;;;;;;4.50;2.58;;;;;;;1.62;64.61;98463.53;5095749;28;20047;-93
2022/01/08 05:20:35;;;;;;;3.55;2.10;;;;;;;1.67;64.53;98474.94;5096117;28;20089;-94
2022/01/08 05:23:05;;;;;;;4.20;2.42;;;;;;;1.53;65.11;98460.88;5095656;28;20561;-94
2022/01/08 05:25:32;;;;;;;4.97;2.35;;;;;;;1.47;65.40;98460.84;5096363;28;20097;-94
2022/01/08 05:27:58;;;;;;;3.63;2.38;;;;;;;1.58;64.47;98480.09;5095718;28;20050;-94
2022/01/08 05:30:26;;;;;;;3.90;2.38;;;;;;;1.59;64.12;98480.13;5097034;28;20047;-94
2022/01/08 05:32:52;;;;;;;4.10;2.50;;;;;;;1.50;65.06;98471.38;5095960;28;20074;-93
2022/01/08 05:35:21;;;;;;;6.28;2.60;;;;;;;1.54;65.17;98491.44;5095913;28;20044;-93
2022/01/08 05:37:51;;;;;;;4.70;2.67;;;;;;;1.55;64.94;98498.44;5096174;28;20094;-94
2022/01/08 05:40:20;;;;;;;4.97;2.50;;;;;;;1.40;64.59;98476.53;5095900;28;20051;-93
2022/01/08 05:42:46;;;;;;;5.15;2.60;;;;;;;1.51;64.27;98492.31;5096315;28;20048;-93
2022/01/08 05:48:33;;;;;;;3.95;2.45;;;;;;;1.51;64.46;98496.69;5095723;28;20032;-93
2022/01/08 05:50:59;;;;;;;6.63;2.72;;;;;;;1.34;64.81;98475.63;5095643;28;20059;-95
2022/01/08 05:53:26;;;;;;;3.25;2.08;;;;;;;1.57;63.43;98512.44;5096631;28;20044;-94
2022/01/08 05:55:55;;;;;;;4.30;2.42;;;;;;;1.49;63.67;98496.66;5095925;28;20125;-95
2022/01/08 05:58:21;;;;;;;4.10;2.47;;;;;;;1.46;63.48;98501.03;5096286;28;20059;-96
2022/01/08 06:04:33;;;;;;;3.25;2.22;;;;;;;1.51;63.95;98528.13;5096026;28;20028;-95
2022/01/08 06:06:58;;;;;;;5.50;2.25;;;;;;;1.29;64.01;98493.94;5095867;28;20040;-95
2022/01/08 06:09:24;;;;;;;3.42;2.10;;;;;;;1.18;64.66;98503.50;5096991;28;20566;-94
2022/01/08 06:11:52;;;;;;;4.50;2.50;;;;;;;1.16;64.49;98510.47;5096179;28;20055;-95
2022/01/08 06:14:18;;;;;;;3.95;2.28;;;;;;;1.05;64.94;98489.44;5096711;28;20044;-95
2022/01/08 06:20:06;;;;;;;4.80;2.00;;;;;;;1.47;63.13;98527.22;5096649;28;20104;-94
2022/01/08 06:22:33;;;;;;;3.72;2.40;;;;;;;1.34;63.29;98507.94;5097101;28;20047;-94
2022/01/08 06:24:59;;;;;;;3.17;2.10;;;;;;;1.25;63.11;98494.78;5095633;28;20060;-94
2022/01/08 06:27:27;;;;;;;3.72;2.30;;;;;;;1.33;63.02;98518.44;5095993;28;20040;-95
2022/01/08 06:29:52;;;;;;;5.80;2.58;;;;;;;1.49;62.78;98529.88;5096285;28;20037;-94
2022/01/08 06:35:41;;;;;;;5.30;2.60;;;;;;;1.30;63.73;98521.91;5098935;28;20114;-94
2022/01/08 06:38:08;;;;;;;4.50;2.42;;;;;;;1.14;63.99;98504.34;5100295;28;20046;-95
2022/01/08 06:40:35;;;;;;;4.32;2.65;;;;;;;1.21;64.23;98524.47;5099572;28;20048;-95
2022/01/08 06:43:03;;;;;;;3.08;2.30;;;;;;;1.03;64.55;98505.13;5100341;28;20044;-95
2022/01/08 06:49:34;;;;;;;4.18;2.40;;;;;;;1.19;64.77;98536.66;5099218;28;20032;-94
2022/01/08 06:51:59;;;;;;;4.30;2.20;;;;;;;1.04;65.08;98521.72;5099250;28;20050;-95
2022/01/08 06:54:26;;;;;;;4.38;2.20;;;;;;;1.03;65.15;98526.09;5099781;28;20119;-94
2022/01/08 06:56:52;;;;;;;3.20;2.17;;;;;;;0.94;65.37;98512.94;5098968;28;20040;-94
2022/01/08 06:59:19;;;;;;;6.50;2.38;;;;;;;1.03;64.92;98520.84;5099336;28;20092;-93
2022/01/08 07:05:08;;;;;;;4.05;2.50;;;;;;;1.17;65.20;98530.53;5102520;28;20032;-94
2022/01/08 07:07:33;;;;;;;4.80;2.67;;;;;;;1.05;65.42;98512.16;5101461;28;20048;-96
2022/01/08 07:09:59;;;;;;;3.85;2.28;;;;;;;1.17;64.65;98517.44;5101038;28;20042;-94
2022/01/08 07:12:25;;;;;;;6.03;2.80;;;;;;;1.11;64.84;98507.81;5100911;28;20119;-94
2022/01/08 07:14:53;;;;;;;5.18;2.60;;;;;;;1.32;64.57;98527.16;5100871;28;20040;-94
2022/01/08 07:20:41;;;;;;;4.55;2.50;;;;;;;1.26;64.25;98487.81;5098605;28;20028;-95
2022/01/08 07:23:09;;;;;;;3.53;2.33;;;;;;;1.32;63.37;98480.84;5097722;28;20055;-95
2022/01/08 07:25:35;;;;;;;5.93;2.58;;;;;;;1.47;64.34;98510.63;5098009;28;20101;-94
2022/01/08 07:28:02;;;;;;;4.97;2.70;;;;;;;1.55;63.44;98508.94;5097960;28;20052;-94
2022/01/08 07:34:30;;;;;;;4.47;2.67;;;;;;;1.81;62.68;98523.03;5098733;28;20023;-93
2022/01/08 07:36:58;;;;;;;7.80;2.95;;;;;;;1.84;61.82;98517.81;5098650;28;20088;-96
2022/01/08 07:39:24;;;;;;;4.55;2.60;;;;;;;1.91;62.04;98510.84;5098627;28;20043;-95
2022/01/08 07:41:50;;;;;;;4.13;2.42;;;;;;;1.92;61.81;98501.22;5097704;28;20079;-95
2022/01/08 07:44:16;;;;;;;6.43;2.47;;;;;;;1.96;62.15;98502.97;5097339;28;20072;-94
2022/01/08 07:50:04;;;;;;;9.43;4.22;;;;;;;2.01;63.83;98494.22;5096729;28;20044;-94
2022/01/08 07:52:33;;;;;;;12.40;6.80;;;;;;;1.95;65.78;98478.50;5097667;28;20059;-95
2022/01/08 07:54:59;;;;;;;13.60;7.53;;;;;;;2.16;69.02;98511.75;5099641;28;20044;-95
2022/01/08 07:57:27;;;;;;;10.55;6.10;;;;;;;2.04;68.72;98485.53;5097670;28;20058;-95
2022/01/08 07:59:53;;;;;;;12.88;7.00;;;;;;;2.19;69.35;98509.16;5097743;28;20085;-94
2022/01/08 08:02:48;;;;;;;19.65;8.73;;;;;;;2.33;69.72;98518.81;5097204;28;20470;-95
2022/01/08 08:05:14;;;;;;;29.15;11.60;;;;;;;2.32;67.44;98511.78;5096667;28;20379;-96
2022/01/08 08:07:42;;;;;;;18.48;8.60;;;;;;;2.34;67.78;98504.78;5096572;28;20062;-95
2022/01/08 08:10:11;;;;;;;23.77;10.75;;;;;;;2.47;66.97;98496.97;5096288;28;20089;-95
2022/01/08 08:12:37;;;;;;;14.43;7.13;;;;;;;2.49;67.27;98493.44;5096175;28;20051;-94
2022/01/08 08:21:46;;;;;;;12.68;8.02;;;;;;;2.82;65.32;98503.06;5098051;28;20032;-92
2022/01/08 08:24:14;;;;;;;13.32;7.80;;;;;;;2.85;65.96;98500.47;5098452;28;20395;-94
2022/01/08 08:26:40;;;;;;;12.25;4.85;;;;;;;3.01;63.83;98481.16;5099295;28;20036;-93
2022/01/08 08:29:06;;;;;;;7.07;4.28;;;;;;;3.04;63.91;98481.19;5097464;28;20093;-96
2022/01/08 08:34:54;;;;;;;11.55;6.53;;;;;;;3.38;62.78;98498.63;5097668;28;20410;-95
2022/01/08 08:37:20;;;;;;;7.53;3.88;;;;;;;3.45;62.70;98498.59;5098762;28;20459;-95
2022/01/08 08:39:47;;;;;;;6.45;3.88;;;;;;;3.28;61.47;98490.75;5098976;28;20115;-95
2022/01/08 08:42:14;;;;;;;9.48;4.22;;;;;;;3.30;61.51;98490.75;5098711;28;20119;-95
2022/01/08 08:44:40;;;;;;;9.60;4.47;;;;;;;3.36;63.34;98488.13;5099354;28;20047;-94
2022/01/08 08:50:27;;;;;;;5.13;3.17;;;;;;;3.64;60.36;98499.44;5098962;28;20051;-96
2022/01/08 08:52:54;;;;;;;7.57;3.70;;;;;;;3.86;59.37;98512.47;5098638;28;20525;-92
2022/01/08 08:55:21;;;;;;;6.05;3.30;;;;;;;3.95;58.64;98511.53;5100791;28;20080;-95
2022/01/08 08:57:51;;;;;;;8.88;5.15;;;;;;;3.99;57.54;98503.66;5096590;28;20489;-95
2022/01/08 09:03:40;;;;;;;5.22;3.72;;;;;;;4.25;55.65;98518.41;5095272;28;20057;-95
2022/01/08 09:06:10;;;;;;;13.23;7.35;;;;;;;4.30;59.89;98504.34;5095571;28;20066;-96
2022/01/08 09:08:36;;;;;;;12.85;7.90;;;;;;;4.27;61.77;98488.59;5095512;28;20067;-94
2022/01/08 09:11:03;;;;;;;20.17;9.55;;;;;;;4.37;62.80;98502.53;5095843;28;20036;-96
2022/01/08 09:13:31;;;;;;;10.45;5.70;;;;;;;4.57;56.44;98519.97;5096221;28;20131;-96
2022/01/08 09:15:57;;;;;;;9.27;5.28;;;;;;;4.36;58.97;98492.91;5098765;28;20044;-96
2022/01/08 09:18:23;;;;;;;15.35;10.48;;;;;;;4.61;56.92;98503.25;5100428;28;20397;-96
2022/01/08 09:20:49;;;;;;;9.63;5.90;;;;;;;4.82;56.79;98507.50;5098877;28;20122;-95
2022/01/08 09:23:15;;;;;;;11.48;6.82;;;;;;;4.84;57.38;98509.22;5096773;28;20498;-94
2022/01/08 09:25:41;;;;;;;11.63;6.95;;;;;;;4.89;59.80;98519.72;5095609;28;20040;-95
2022/01/08 09:28:09;;;;;;;12.82;8.18;;;;;;;4.97;61.69;98538.97;5095889;28;20063;-94
2022/01/08 09:30:35;;;;;;;12.75;7.22;;;;;;;5.00;61.71;98543.34;5095799;28;20040;-94
2022/01/08 09:33:00;;;;;;;11.10;7.20;;;;;;;4.78;63.47;98535.63;5096533;28;20044;-93
2022/01/08 09:35:26;;;;;;;15.95;7.45;;;;;;;4.92;63.11;98556.56;5095773;28;20482;-95
2022/01/08 09:37:53;;;;;;;20.20;7.47;;;;;;;4.80;64.28;98548.78;5095536;28;20040;-95
2022/01/08 09:40:22;;;;;;;12.93;7.28;;;;;;;4.77;63.36;98522.44;5096007;28;20036;-94
2022/01/08 09:42:49;;;;;;;12.50;7.33;;;;;;;4.74;62.79;98542.66;5095671;28;20044;-96
2022/01/08 09:45:18;;;;;;;12.48;7.47;;;;;;;4.68;63.07;98524.28;5095882;28;20052;-95
2022/01/08 09:47:44;;;;;;;14.50;8.63;;;;;;;4.80;63.95;98546.16;5096428;28;20047;-95
2022/01/08 09:50:10;;;;;;;5.47;3.20;;;;;;;4.82;54.69;98532.06;5096726;28;20039;-96
2022/01/08 09:52:37;;;;;;;5.35;2.90;;;;;;;5.02;52.46;98536.31;5101447;28;20048;-95
2022/01/08 09:55:04;;;;;;;5.68;3.50;;;;;;;5.27;53.66;98536.94;5095649;28;20040;-95
2022/01/08 09:57:31;;;;;;;4.07;2.70;;;;;;;5.44;51.19;98534.13;5096842;28;20054;-96
2022/01/08 09:59:58;;;;;;;5.38;3.05;;;;;;;5.54;50.44;98523.47;5096551;28;20089;-94
2022/01/08 10:05:50;;;;;;;5.80;2.97;;;;;;;5.05;49.52;98515.19;5107993;28;20035;-96
2022/01/08 10:08:23;;;;;;;7.25;2.97;;;;;;;5.26;51.33;98536.06;5118330;28;20048;-95
2022/01/08 10:10:56;;;;;;;4.32;2.83;;;;;;;5.35;50.13;98546.53;5114236;28;20036;-93
2022/01/08 10:13:28;;;;;;;3.47;2.40;;;;;;;5.21;48.94;98518.56;5098669;28;20074;-94
2022/01/08 10:19:19;;;;;;;7.22;2.72;;;;;;;5.49;50.04;98520.03;5100145;28;20032;-93
2022/01/08 10:21:48;;;;;;;5.85;2.53;;;;;;;5.68;48.92;98519.81;5100057;28;20080;-94
2022/01/08 10:24:20;;;;;;;3.80;2.28;;;;;;;5.85;50.01;98512.56;5099916;28;20057;-94
2022/01/08 10:27:02;;;;;;;3.70;2.47;;;;;;;5.96;48.83;98521.28;5099601;28;20048;-95
2022/01/08 10:29:29;;;;;;;4.60;2.40;;;;;;;6.00;48.21;98529.16;5100585;28;20070;-93
2022/01/08 10:35:45;;;;;;;3.80;2.35;;;;;;;5.92;47.02;98516.91;5101413;28;20058;-94
2022/01/08 10:38:13;;;;;;;4.07;2.35;;;;;;;5.70;47.41;98502.19;5103952;28;20051;-93
2022/01/08 10:40:39;;;;;;;5.05;2.67;;;;;;;5.52;48.41;98516.47;5102791;28;20052;-94
2022/01/08 10:43:25;;;;;;;4.38;2.45;;;;;;;5.67;47.06;98502.25;5118238;28;20055;-94
2022/01/08 10:49:34;;;;;;;7.32;3.30;;;;;;;5.84;48.65;98504.69;5122199;28;20039;-95
2022/01/08 10:52:03;;;;;;;3.63;2.35;;;;;;;5.85;47.62;98498.50;5113483;28;20121;-94
2022/01/08 11:01:45;;;;;;;6.30;2.80;;;;;;;5.74;45.41;98493.38;5015948;28;20053;-94
2022/01/08 11:04:13;;;;;;;3.67;2.20;;;;;;;5.80;47.11;98484.50;5019759;28;20046;-95
2022/01/08 11:06:51;;;;;;;11.40;5.50;;;;;;;5.87;46.83;98489.69;5018904;28;20050;-93
2022/01/08 11:09:17;;;;;;;5.97;2.67;;;;;;;5.59;45.42;98467.16;5032839;28;20051;-94
2022/01/08 11:11:44;;;;;;;5.40;2.58;;;;;;;5.51;46.20;98457.59;5038373;28;20136;-95
2022/01/08 11:14:21;;;;;;;6.10;2.55;;;;;;;5.70;45.21;98476.72;5040703;28;20125;-94
2022/01/08 11:20:16;;;;;;;2.97;1.88;;;;;;;5.80;45.59;98482.75;5099576;28;20024;-94
2022/01/08 11:22:44;;;;;;;4.72;2.45;;;;;;;5.73;45.29;98462.63;5100269;28;20044;-94
2022/01/08 11:25:12;;;;;;;5.38;2.80;;;;;;;5.73;46.96;98452.06;5099972;28;20052;-95
2022/01/08 11:27:52;;;;;;;4.50;2.30;;;;;;;5.83;45.12;98471.25;5100434;28;20075;-92
2022/01/08 11:33:48;;;;;;;4.55;2.20;;;;;;;5.87;45.52;98451.88;5098923;28;20049;-95
2022/01/08 11:36:16;;;;;;;9.45;3.97;;;;;;;5.78;47.01;98442.31;5099186;28;20044;-94
2022/01/08 11:38:44;;;;;;;3.60;2.70;;;;;;;5.81;46.44;98460.72;5098682;28;20040;-94
2022/01/08 11:41:10;;;;;;;5.13;2.75;;;;;;;5.79;46.37;98433.50;5099391;28;20075;-94
2022/01/08 11:43:37;;;;;;;8.52;5.25;;;;;;;6.00;45.35;98448.19;5099522;28;20072;-95
2022/01/08 11:46:05;;;;;;;3.80;2.42;;;;;;;5.78;46.34;98425.63;5099494;28;20031;-95
2022/01/08 11:48:34;;;;;;;4.25;2.53;;;;;;;5.86;46.59;98432.53;5099162;28;20036;-96
2022/01/08 11:51:06;;;;;;;3.15;2.25;;;;;;;6.01;45.36;98435.88;5099613;28;20410;-95
2022/01/08 11:53:45;;;;;;;3.88;2.13;;;;;;;6.05;44.74;98443.75;5099763;28;20040;-94
2022/01/08 11:56:22;;;;;;;4.90;2.60;;;;;;;5.88;45.06;98436.03;5116589;28;20584;-94
2022/01/08 11:59:05;;;;;;;6.53;3.38;;;;;;;5.90;45.80;98426.31;5119612;28;20524;-95
2022/01/08 12:11:55;;;;;;;6.05;2.92;;;;;;;6.08;45.51;98425.22;5077549;28;20040;-93
2022/01/08 12:14:23;;;;;;;4.10;2.70;;;;;;;5.95;46.16;98405.16;5078142;28;20052;-95
2022/01/08 12:16:50;;;;;;;5.03;2.55;;;;;;;6.10;45.25;98404.94;5078890;28;20467;-94
2022/01/08 12:19:46;;;;;;;4.25;2.40;;;;;;;6.25;46.63;98421.47;5078740;28;20041;-96
2022/01/08 12:22:32;;;;;;;4.68;2.50;;;;;;;6.26;46.16;98416.13;4994729;28;20128;-94
2022/01/08 12:25:00;;;;;;;8.93;3.28;;;;;;;6.06;46.43;98389.19;5015243;28;20152;-94
2022/01/08 12:27:44;;;;;;;5.22;2.55;;;;;;;6.09;47.49;98389.97;5016081;28;20112;-94
2022/01/08 12:33:36;;;;;;;4.50;2.55;;;;;;;6.31;46.56;98379.97;5015526;28;20037;-96
2022/01/08 12:36:32;;;;;;;4.95;2.70;;;;;;;6.36;46.85;98375.50;5015589;28;20042;-95
2022/01/08 12:39:03;;;;;;;3.88;2.50;;;;;;;6.39;45.94;98379.84;5015190;28;20038;-96
2022/01/08 12:41:29;;;;;;;4.95;2.45;;;;;;;6.37;45.64;98365.78;5015255;28;20050;-94
2022/01/08 12:44:16;;;;;;;41.30;17.30;;;;;;;6.35;46.80;98376.41;5015437;28;20046;-95
2022/01/08 12:50:27;;;;;;;4.35;3.00;;;;;;;6.19;45.69;98363.47;5015266;28;20547;-92
2022/01/08 12:53:22;;;;;;;5.13;2.80;;;;;;;6.32;47.69;98372.94;4990936;28;20520;-94
2022/01/08 12:56:08;;;;;;;4.97;2.75;;;;;;;6.34;46.45;98371.13;4996082;28;20116;-93
2022/01/08 12:58:36;;;;;;;7.32;4.25;;;;;;;6.24;46.15;98358.97;5076906;28;20143;-92
2022/01/08 13:01:06;;;;;;;4.35;2.88;;;;;;;6.25;46.92;98358.94;5100413;28;20094;-96
2022/01/08 13:03:37;;;;;;;11.75;8.30;;;;;;;6.17;46.19;98337.94;5097257;28;20520;-93
2022/01/08 13:06:05;;;;;;;6.47;3.13;;;;;;;6.06;45.32;98328.47;5097171;28;20072;-93
2022/01/08 13:08:32;;;;;;;4.72;2.80;;;;;;;6.22;45.87;98340.50;5115477;28;20584;-92
2022/01/08 13:11:00;;;;;;;3.80;2.60;;;;;;;6.26;46.79;98342.19;5113339;28;20134;-93
2022/01/08 13:13:27;;;;;;;5.47;2.70;;;;;;;6.32;46.61;98339.47;5095121;28;20497;-92
2022/01/08 13:19:34;;;;;;;6.28;3.15;;;;;;;6.29;46.12;98336.88;5095250;28;20196;-93
2022/01/08 13:22:02;;;;;;;5.03;3.40;;;;;;;6.30;46.96;98325.41;5095891;28;20043;-92
2022/01/08 13:24:31;;;;;;;4.43;2.80;;;;;;;6.46;46.81;98348.91;5095489;28;20450;-94
2022/01/08 13:26:59;;;;;;;4.88;3.08;;;;;;;6.48;46.22;98328.63;5095492;28;20044;-94
2022/01/08 13:29:27;;;;;;;8.68;3.47;;;;;;;6.50;46.12;98319.78;5115064;28;20228;-93
2022/01/08 13:38:39;;;;;;;4.20;2.78;;;;;;;6.49;45.93;98330.38;5115639;28;20035;-93
2022/01/08 13:41:10;;;;;;;4.75;3.20;;;;;;;6.44;46.77;98327.84;5095013;28;20105;-94
2022/01/08 13:43:58;;;;;;;6.93;3.53;;;;;;;6.62;45.32;98347.75;5096277;28;20048;-95
2022/01/08 13:46:27;;;;;;;5.18;2.90;;;;;;;6.50;45.70;98322.41;5113058;28;20043;-94
2022/01/08 13:48:55;;;;;;;4.57;2.85;;;;;;;6.56;45.73;98332.00;5117833;28;20100;-95
2022/01/08 13:51:23;;;;;;;4.53;2.90;;;;;;;6.58;45.30;98335.50;5118530;28;20384;-96
2022/01/08 13:54:01;;;;;;;5.47;2.70;;;;;;;6.54;44.59;98318.81;5118018;28;20032;-96
2022/01/08 13:56:28;;;;;;;6.57;4.65;;;;;;;6.60;45.44;98336.34;5118067;28;20043;-95
2022/01/08 13:59:05;;;;;;;5.43;3.10;;;;;;;6.56;45.37;98332.88;5103907;28;20062;-94
2022/01/08 14:04:53;;;;;;;5.78;3.30;;;;;;;6.51;45.73;98339.16;5096679;28;20036;-94
2022/01/08 14:07:33;;;;;;;4.68;2.67;;;;;;;6.45;44.29;98320.78;5097720;28;20044;-94
2022/01/08 14:10:01;;;;;;;4.90;3.03;;;;;;;6.37;44.08;98315.59;5098116;28;20123;-95
2022/01/08 14:12:30;;;;;;;5.20;2.90;;;;;;;6.40;44.71;98319.97;5098620;28;20521;-95
2022/01/08 14:14:56;;;;;;;4.68;2.75;;;;;;;6.45;43.92;98326.06;5097466;28;20052;-94
2022/01/08 14:17:25;;;;;;;6.88;3.70;;;;;;;6.37;44.52;98324.41;5099341;28;20044;-95
2022/01/08 14:19:58;;;;;;;11.60;6.20;;;;;;;6.47;44.98;98317.19;5099135;28;20043;-95
2022/01/08 14:22:25;;;;;;;9.20;4.65;;;;;;;6.48;45.02;98331.28;5098984;28;20051;-96
2022/01/08 14:24:51;;;;;;;7.57;4.82;;;;;;;6.45;45.03;98326.91;5099090;28;20051;-95
2022/01/08 14:27:22;;;;;;;7.63;4.45;;;;;;;6.45;45.59;98339.25;5099540;28;20036;-94
2022/01/08 14:36:44;;;;;;;5.35;3.30;;;;;;;6.47;43.76;98348.03;5055732;28;20025;-95
2022/01/08 14:39:11;;;;;;;7.63;3.58;;;;;;;6.43;44.04;98338.41;5055259;28;20033;-95
2022/01/08 14:41:37;;;;;;;6.05;3.97;;;;;;;6.38;42.06;98323.50;5055723;28;20056;-95
2022/01/08 14:44:05;;;;;;;11.20;5.18;;;;;;;6.47;43.05;98329.53;5055038;28;20057;-96
2022/01/08 14:49:52;;;;;;;6.90;3.03;;;;;;;6.34;43.49;98328.88;5061610;28;20024;-95
2022/01/08 14:52:21;;;;;;;6.32;3.45;;;;;;;6.30;46.40;98349.19;5097434;28;20156;-94
2022/01/08 14:54:47;;;;;;;7.15;3.63;;;;;;;6.13;42.94;98316.91;5098122;28;20082;-95
2022/01/08 14:57:32;;;;;;;9.93;4.40;;;;;;;6.21;43.11;98333.50;5101232;28;20077;-93
2022/01/08 15:00:00;;;;;;;9.45;4.68;;;;;;;6.07;43.88;98331.09;5101884;28;20501;-95
2022/01/08 15:06:07;;;;;;;7.55;4.30;;;;;;;6.01;43.44;98347.03;5057239;28;20029;-94
2022/01/08 15:08:35;;;;;;;6.63;3.38;;;;;;;6.03;43.50;98354.91;5057934;28;20064;-95
2022/01/08 15:11:00;;;;;;;7.60;3.85;;;;;;;5.84;45.94;98341.09;5057984;28;20045;-95
2022/01/08 15:13:27;;;;;;;7.82;4.82;;;;;;;5.67;45.63;98333.41;5057370;28;20141;-94
2022/01/08 15:19:34;;;;;;;15.25;6.38;;;;;;;5.58;45.95;98357.31;5058077;28;20036;-96
2022/01/08 15:22:01;;;;;;;12.45;5.80;;;;;;;5.41;47.88;98358.38;5058487;28;20060;-94
2022/01/08 15:24:28;;;;;;;12.40;5.40;;;;;;;5.50;46.11;98360.88;5057695;28;20041;-94
2022/01/08 15:26:57;;;;;;;8.82;4.78;;;;;;;5.46;45.79;98377.63;5056591;28;20116;-94